Time;durP1;ratioP1;P1;durP2;ratioP2;P2;SDS_P1;SDS_P2;PMS_P1;PMS_P2;Temp;Humidity;BMP_temperature;BMP_pressure;BME280_temperature;BME280_humidity;BME280_pressure;Samples;Min_cycle;Max_cycle;Signal;HPM_P1;HPM_P2
2022/07/11 02:46:32;;;;;;;1.20;0.20;;;15.80;71.90;;;;;;5759163;23;90189;-80
2022/07/11 02:48:58;;;;;;;2.60;0.20;;;15.80;72.00;;;;;;4895867;28;86887;-82
2022/07/11 02:51:24;;;;;;;2.55;0.28;;;15.80;72.00;;;;;;4883582;28;87084;-79
2022/07/11 02:53:49;;;;;;;1.77;0.20;;;15.80;72.80;;;;;;4893299;28;86945;-80
2022/07/11 02:56:16;;;;;;;4.15;0.30;;;15.70;73.40;;;;;;4898622;28;86900;-83
2022/07/11 02:58:42;;;;;;;3.60;0.35;;;15.70;73.50;;;;;;4898502;28;87008;-79
2022/07/11 03:01:07;;;;;;;0.90;0.13;;;15.60;73.70;;;;;;4897084;28;89369;-84
2022/07/11 03:03:33;;;;;;;1.20;0.10;;;15.50;73.50;;;;;;4898936;28;86236;-82
2022/07/11 03:05:59;;;;;;;1.90;0.10;;;15.30;72.80;;;;;;4899250;28;87035;-80
2022/07/11 03:08:25;;;;;;;1.67;0.20;;;15.50;74.00;;;;;;4898683;28;86949;-80
2022/07/11 03:10:50;;;;;;;4.63;0.30;;;15.50;74.20;;;;;;4897985;28;89022;-77
2022/07/11 03:13:16;;;;;;;0.43;0.03;;;15.40;74.40;;;;;;4899355;28;88358;-80
2022/07/11 03:15:42;;;;;;;1.92;0.22;;;15.30;75.10;;;;;;4901643;28;86949;-80
2022/07/11 03:18:08;;;;;;;4.35;0.10;;;15.30;74.30;;;;;;4900424;28;87094;-81
2022/07/11 03:20:33;;;;;;;4.55;0.47;;;15.30;75.00;;;;;;4901391;28;87205;-81
2022/07/11 03:22:59;;;;;;;3.10;0.20;;;15.30;75.50;;;;;;4901667;28;86864;-81
2022/07/11 03:25:25;;;;;;;2.25;0.20;;;15.40;74.80;;;;;;4902209;28;87117;-80
2022/07/11 03:27:50;;;;;;;0.85;0.20;;;15.30;76.40;;;;;;4903080;28;85943;-81
2022/07/11 03:30:16;;;;;;;1.58;0.20;;;15.20;75.60;;;;;;4902160;28;89418;-82
2022/07/11 03:32:42;;;;;;;2.22;0.20;;;15.20;75.60;;;;;;4902283;28;87428;-82
2022/07/11 03:37:52;;;;;;;2.03;0.30;;;15.20;76.50;;;;;;4899306;28;86868;-80
2022/07/11 03:40:18;;;;;;;1.85;0.10;;;15.20;76.50;;;;;;4899279;28;87332;-82
2022/07/11 03:42:44;;;;;;;1.10;0.10;;;15.20;75.60;;;;;;4898491;28;87361;-82
2022/07/11 03:45:10;;;;;;;0.90;0.20;;;15.20;75.90;;;;;;4902676;28;86529;-81
2022/07/11 03:47:36;;;;;;;1.50;0.28;;;15.30;76.00;;;;;;4915047;28;88523;-80
2022/07/11 03:50:03;;;;;;;1.63;0.10;;;15.30;75.90;;;;;;4921507;28;87761;-81
2022/07/11 03:52:28;;;;;;;3.33;0.20;;;15.30;76.00;;;;;;4909706;28;88980;-80
2022/07/11 03:54:54;;;;;;;1.50;0.15;;;15.30;76.10;;;;;;4900528;28;86947;-81
2022/07/11 03:57:20;;;;;;;1.73;0.20;;;15.30;74.60;;;;;;4901096;28;86901;-80
2022/07/11 03:59:45;;;;;;;2.53;0.15;;;15.40;74.10;;;;;;4897858;28;89231;-81
2022/07/11 04:02:11;;;;;;;3.63;0.30;;;15.30;73.00;;;;;;4892959;28;87934;-81
2022/07/11 04:04:37;;;;;;;1.77;0.10;;;15.30;73.00;;;;;;4897504;28;87012;-79
2022/07/11 04:07:02;;;;;;;3.10;0.20;;;15.60;74.00;;;;;;4886582;28;88022;-80
2022/07/11 04:09:28;;;;;;;2.22;0.20;;;16.10;72.00;;;;;;4878340;28;87359;-81
2022/07/11 04:11:54;;;;;;;3.00;0.17;;;16.50;70.70;;;;;;4893319;28;87212;-80
2022/07/11 04:14:19;;;;;;;2.55;0.30;;;16.70;69.60;;;;;;4883994;28;86888;-80
2022/07/11 04:16:45;;;;;;;1.85;0.30;;;16.70;69.20;;;;;;4896516;28;86017;-81
2022/07/11 04:19:11;;;;;;;2.90;0.30;;;16.70;68.90;;;;;;4899118;28;87403;-81
2022/07/11 04:21:36;;;;;;;4.35;0.60;;;17.00;68.40;;;;;;4894889;28;87441;-82
2022/07/11 04:24:02;;;;;;;2.58;0.35;;;17.10;67.70;;;;;;4896014;28;88042;-82
2022/07/11 04:26:28;;;;;;;2.15;0.30;;;17.30;67.10;;;;;;4895353;28;87076;-82
2022/07/11 04:28:54;;;;;;;2.70;0.25;;;17.40;66.90;;;;;;4892980;28;86838;-81
2022/07/11 04:31:19;;;;;;;4.28;0.30;;;17.70;66.00;;;;;;4900056;28;87888;-81
2022/07/11 04:33:45;;;;;;;3.20;0.65;;;18.60;66.00;;;;;;4899752;28;87148;-83
2022/07/11 04:36:11;;;;;;;4.00;0.82;;;19.60;62.40;;;;;;4885777;28;87064;-80
2022/07/11 04:38:37;;;;;;;2.67;0.70;;;19.80;60.00;;;;;;4884396;28;86983;-81
2022/07/11 04:41:02;;;;;;;2.63;0.80;;;19.70;61.00;;;;;;4897837;28;87912;-81
2022/07/11 04:43:28;;;;;;;3.03;0.88;;;19.80;60.00;;;;;;4892159;28;87431;-84
2022/07/11 04:45:54;;;;;;;2.58;0.98;;;19.60;60.90;;;;;;4901915;28;86779;-83
2022/07/11 04:48:20;;;;;;;4.25;0.93;;;19.90;61.70;;;;;;4891925;28;88248;-81
2022/07/11 04:50:45;;;;;;;4.25;1.40;;;21.30;59.60;;;;;;4889159;28;87924;-83
2022/07/11 04:53:12;;;;;;;1.77;0.52;;;22.50;57.20;;;;;;4905197;28;87181;-84
2022/07/11 04:55:41;;;;;;;2.97;0.63;;;23.30;53.60;;;;;;4896322;28;87171;-82
2022/07/11 04:58:08;;;;;;;1.98;0.52;;;23.50;53.10;;;;;;4901948;28;87678;-83
2022/07/11 05:00:35;;;;;;;1.58;0.40;;;23.50;52.90;;;;;;4894932;28;86694;-84
2022/07/11 05:03:01;;;;;;;1.65;0.40;;;23.00;53.60;;;;;;4911651;28;86993;-82
2022/07/11 05:05:27;;;;;;;1.00;0.40;;;23.60;53.60;;;;;;4893081;28;86387;-85
2022/07/11 05:07:53;;;;;;;2.20;0.40;;;24.40;50.90;;;;;;4907514;28;87989;-82
2022/07/11 05:10:19;;;;;;;3.50;0.50;;;24.60;50.40;;;;;;4902880;28;87695;-82
2022/07/11 05:12:44;;;;;;;3.83;0.40;;;25.10;49.10;;;;;;4906258;28;87851;-83
2022/07/11 05:15:10;;;;;;;2.83;0.63;;;25.30;51.00;;;;;;4891528;28;86683;-82
2022/07/11 05:17:36;;;;;;;3.78;0.63;;;25.90;47.40;;;;;;4897861;28;88350;-85
2022/07/11 05:20:03;;;;;;;3.03;0.60;;;26.50;47.30;;;;;;4901275;28;87566;-86
2022/07/11 05:22:29;;;;;;;2.17;0.70;;;27.10;47.40;;;;;;4894783;28;87253;-87
2022/07/11 05:24:55;;;;;;;2.50;0.57;;;27.40;46.10;;;;;;4888429;28;87689;-82
2022/07/11 05:27:20;;;;;;;1.65;0.57;;;27.80;46.70;;;;;;4896515;28;86982;-82
2022/07/11 05:29:46;;;;;;;2.10;0.60;;;28.90;44.20;;;;;;4892523;28;87484;-86
2022/07/11 05:32:12;;;;;;;8.00;0.82;;;29.30;42.90;;;;;;4896684;28;86769;-83
2022/07/11 05:34:38;;;;;;;2.90;0.30;;;29.30;43.20;;;;;;4902789;28;86878;-83
2022/07/11 05:37:04;;;;;;;7.63;0.60;;;29.50;42.40;;;;;;4912379;28;87532;-83
2022/07/11 05:39:30;;;;;;;1.70;0.57;;;29.70;41.70;;;;;;4903294;28;87150;-82
2022/07/11 05:41:55;;;;;;;5.55;0.55;;;29.70;41.70;;;;;;4914111;28;86916;-83
2022/07/11 05:44:21;;;;;;;5.82;0.50;;;30.50;42.40;;;;;;4890707;28;86939;-83
2022/07/11 05:46:47;;;;;;;4.72;0.70;;;30.20;41.70;;;;;;4904198;28;87819;-83
2022/07/11 05:49:12;;;;;;;2.22;0.60;;;29.60;41.50;;;;;;4913100;28;87898;-84
2022/07/11 05:51:38;;;;;;;3.35;0.70;;;28.20;44.80;;;;;;4916314;28;87014;-84
2022/07/11 05:54:05;;;;;;;3.47;1.08;;;29.30;43.70;;;;;;4907501;28;86403;-84
2022/07/11 05:56:30;;;;;;;2.30;0.77;;;30.10;42.90;;;;;;4904268;28;87833;-83
2022/07/11 05:58:57;;;;;;;3.13;0.63;;;31.80;41.30;;;;;;4903889;28;87045;-83
2022/07/11 06:01:23;;;;;;;2.50;0.80;;;33.00;40.00;;;;;;4918841;28;87959;-85
2022/07/11 06:03:50;;;;;;;2.78;0.65;;;33.80;39.20;;;;;;4912732;28;87704;-83
2022/07/11 06:06:16;;;;;;;4.75;0.82;;;34.50;38.20;;;;;;4914572;28;87451;-87
2022/07/11 06:08:43;;;;;;;2.15;1.02;;;35.10;37.90;;;;;;4906316;28;86971;-86
2022/07/11 06:11:10;;;;;;;1.60;0.65;;;34.80;38.80;;;;;;4908168;28;86943;-86
2022/07/11 06:13:37;;;;;;;1.60;0.82;;;34.80;38.90;;;;;;4913796;28;87082;-84
2022/07/11 06:16:04;;;;;;;1.98;1.00;;;34.50;39.10;;;;;;4907483;28;88162;-86
2022/07/11 06:18:30;;;;;;;3.55;0.80;;;35.00;38.80;;;;;;4911446;28;87448;-85
2022/07/11 06:20:56;;;;;;;4.30;0.88;;;34.30;38.50;;;;;;4912326;28;87664;-84
2022/07/11 06:23:21;;;;;;;2.28;0.93;;;33.80;39.70;;;;;;4916575;28;87246;-86
2022/07/11 06:25:47;;;;;;;3.13;1.25;;;34.60;39.50;;;;;;4911381;28;88055;-85
2022/07/11 06:28:13;;;;;;;1.30;0.70;;;33.90;39.10;;;;;;4907831;28;87824;-84
2022/07/11 06:30:38;;;;;;;3.75;1.08;;;34.20;39.50;;;;;;4912200;28;87015;-86
2022/07/11 06:33:04;;;;;;;2.22;0.93;;;34.50;38.80;;;;;;4911204;28;87085;-85
2022/07/11 06:35:30;;;;;;;1.50;0.50;;;35.40;38.50;;;;;;4911048;28;87579;-84
2022/07/11 06:37:56;;;;;;;2.92;0.85;;;35.80;37.50;;;;;;4908786;28;87348;-86
2022/07/11 06:40:23;;;;;;;2.50;1.20;;;36.10;37.80;;;;;;4912378;28;86756;-83
2022/07/11 06:42:49;;;;;;;1.95;1.15;;;37.30;36.00;;;;;;4918015;28;85469;-84
2022/07/11 06:45:15;;;;;;;3.13;1.45;;;36.90;36.70;;;;;;4912976;28;87187;-86
2022/07/11 06:47:40;;;;;;;1.77;0.95;;;37.10;36.20;;;;;;4916480;28;87050;-85
2022/07/11 06:50:07;;;;;;;2.20;1.05;;;36.80;36.70;;;;;;4908554;28;88001;-86
2022/07/11 06:52:33;;;;;;;3.15;1.20;;;36.20;36.10;;;;;;4904923;28;87313;-86
2022/07/11 06:54:58;;;;;;;1.90;1.30;;;36.60;35.50;;;;;;4903861;28;87248;-87
2022/07/11 06:57:24;;;;;;;2.22;1.33;;;35.50;36.60;;;;;;4902281;28;87076;-86
2022/07/11 06:59:50;;;;;;;3.63;1.52;;;35.90;38.00;;;;;;4906805;28;88684;-85
2022/07/11 07:02:16;;;;;;;2.08;1.00;;;37.40;35.80;;;;;;4911902;28;87198;-87
2022/07/11 07:04:42;;;;;;;2.90;1.42;;;38.10;35.10;;;;;;4904663;28;88004;-82
2022/07/11 07:07:07;;;;;;;3.05;1.70;;;38.40;35.00;;;;;;4915428;28;87651;-85
2022/07/11 07:09:33;;;;;;;2.40;1.20;;;39.40;34.20;;;;;;4903843;28;87003;-86
2022/07/11 07:11:59;;;;;;;2.38;1.63;;;39.80;33.70;;;;;;4903589;28;87060;-83
2022/07/11 07:14:24;;;;;;;2.55;1.42;;;39.50;33.70;;;;;;4902863;28;88170;-83
2022/07/11 07:16:50;;;;;;;2.15;1.55;;;40.40;32.40;;;;;;4910657;28;87748;-85
2022/07/11 07:19:16;;;;;;;2.67;1.85;;;40.40;31.80;;;;;;4905370;28;86672;-84
2022/07/11 07:21:42;;;;;;;2.40;1.63;;;40.40;32.10;;;;;;4902815;28;87017;-86
2022/07/11 07:24:07;;;;;;;1.73;1.02;;;40.20;33.70;;;;;;4903845;28;87296;-84
2022/07/11 07:26:33;;;;;;;2.58;1.38;;;40.80;32.50;;;;;;4903285;28;87093;-86
2022/07/11 07:28:59;;;;;;;2.65;1.48;;;39.90;32.80;;;;;;4903134;28;87046;-84
2022/07/11 07:31:25;;;;;;;2.05;1.42;;;40.10;32.80;;;;;;4904438;28;86370;-83
2022/07/11 07:33:51;;;;;;;2.92;1.75;;;41.20;32.90;;;;;;4904886;28;87619;-88
2022/07/11 07:36:17;;;;;;;3.25;1.85;;;42.40;31.70;;;;;;4904318;28;88462;-83
2022/07/11 07:38:46;;;;;;;2.08;1.40;;;43.60;31.40;;;;;;4908335;28;87525;-85
2022/07/11 07:41:13;;;;;;;3.65;1.88;;;44.00;30.00;;;;;;4905785;28;86868;-84
2022/07/11 07:43:39;;;;;;;2.88;2.25;;;43.00;31.20;;;;;;4906662;28;86964;-84
2022/07/11 07:46:05;;;;;;;3.28;1.85;;;43.70;30.70;;;;;;4905488;28;86919;-82
2022/07/11 07:48:31;;;;;;;2.58;1.48;;;44.10;29.70;;;;;;4905603;28;87416;-82
2022/07/11 07:50:56;;;;;;;2.75;1.77;;;43.10;29.80;;;;;;4906094;28;87115;-85
2022/07/11 07:53:22;;;;;;;3.70;1.90;;;43.40;30.10;;;;;;4905931;28;87249;-86
2022/07/11 07:55:49;;;;;;;3.40;1.23;;;44.50;29.80;;;;;;4905598;28;86669;-83
2022/07/11 07:58:15;;;;;;;3.65;2.92;;;44.40;29.60;;;;;;4906011;28;86915;-85
2022/07/11 08:03:25;;;;;;;2.78;1.90;;;43.50;29.20;;;;;;4913011;28;87762;-84
2022/07/11 08:05:51;;;;;;;2.88;2.28;;;44.40;28.90;;;;;;4926596;28;87886;-83
2022/07/11 08:08:16;;;;;;;5.25;3.33;;;44.30;29.70;;;;;;4909624;28;87088;-86
2022/07/11 08:10:42;;;;;;;2.55;2.05;;;43.70;29.00;;;;;;4918574;28;86986;-85
2022/07/11 08:13:08;;;;;;;3.55;2.47;;;44.30;28.70;;;;;;4913583;28;87503;-83
2022/07/11 08:15:34;;;;;;;3.65;2.40;;;45.20;28.90;;;;;;4906877;28;86923;-84
2022/07/11 08:18:00;;;;;;;2.97;2.45;;;45.70;27.90;;;;;;4906287;28;86903;-88
2022/07/11 08:20:26;;;;;;;3.85;1.90;;;44.60;29.20;;;;;;4915150;28;86215;-84
2022/07/11 08:22:51;;;;;;;4.00;1.70;;;43.80;28.30;;;;;;4907163;28;87667;-83
2022/07/11 08:25:17;;;;;;;4.45;2.47;;;43.00;29.20;;;;;;4907859;28;88811;-87
2022/07/11 08:27:43;;;;;;;3.28;2.28;;;43.30;28.70;;;;;;4906316;28;87954;-85
2022/07/11 08:30:09;;;;;;;4.13;2.22;;;44.00;28.40;;;;;;4905702;28;86916;-85
2022/07/11 08:32:40;;;;;;;3.00;2.17;;;42.20;28.90;;;;;;4900597;28;86646;-87
2022/07/11 08:35:06;;;;;;;4.32;2.65;;;43.20;29.30;;;;;;4905104;28;87089;-87
2022/07/11 08:37:32;;;;;;;5.00;1.95;;;45.60;28.80;;;;;;4907132;28;86935;-88
2022/07/11 08:39:58;;;;;;;3.22;2.88;;;44.50;28.30;;;;;;4911415;28;86930;-88
2022/07/11 08:42:26;;;;;;;3.25;2.40;;;45.70;27.90;;;;;;4914134;28;86884;-86
2022/07/11 08:44:54;;;;;;;3.20;2.75;;;46.20;27.60;;;;;;4908807;28;87436;-85
2022/07/11 08:47:21;;;;;;;6.93;2.13;;;45.60;27.30;;;;;;4907843;28;86893;-85
2022/07/11 08:49:46;;;;;;;3.75;3.45;;;45.40;27.50;;;;;;4907222;28;86910;-85
2022/07/11 08:52:14;;;;;;;4.20;2.97;;;47.30;27.40;;;;;;4906458;28;88611;-86
2022/07/11 08:54:40;;;;;;;4.22;3.40;;;48.40;26.40;;;;;;4905321;28;89297;-86
2022/07/11 08:57:06;;;;;;;4.30;3.90;;;47.60;26.50;;;;;;4905948;28;86266;-85
2022/07/11 08:59:34;;;;;;;5.18;4.25;;;46.70;27.60;;;;;;4906908;28;86976;-84
2022/07/11 09:02:03;;;;;;;6.47;3.85;;;46.90;26.80;;;;;;4907354;28;87256;-87
2022/07/11 09:04:30;;;;;;;4.90;3.70;;;46.70;27.30;;;;;;4907938;28;87292;-84
2022/07/11 09:06:59;;;;;;;4.80;4.40;;;45.40;27.60;;;;;;4907232;28;86916;-84
2022/07/11 09:09:24;;;;;;;6.10;3.60;;;47.20;26.60;;;;;;4903836;28;86394;-85
2022/07/11 09:11:58;;;;;;;5.97;4.03;;;47.20;26.20;;;;;;4906457;28;87307;-85
2022/07/11 09:14:24;;;;;;;3.63;3.33;;;46.30;27.00;;;;;;4919531;28;86591;-87
2022/07/11 09:16:54;;;;;;;4.13;3.65;;;44.80;27.00;;;;;;4908308;28;87704;-85
2022/07/11 09:19:28;;;;;;;3.60;3.30;;;46.00;27.60;;;;;;4910110;28;86693;-85
2022/07/11 09:27:55;;;;;;;3.85;2.92;;;46.50;26.80;;;;;;4905559;28;87177;-84
2022/07/11 09:30:27;;;;;;;4.85;4.40;;;46.70;26.60;;;;;;4884450;28;86978;-86
2022/07/11 09:33:00;;;;;;;5.30;4.57;;;46.50;27.20;;;;;;4887074;28;87115;-85
2022/07/11 09:35:35;;;;;;;4.65;4.25;;;48.00;26.60;;;;;;4902217;28;86790;-86
2022/07/11 09:38:09;;;;;;;4.93;3.78;;;49.40;26.20;;;;;;4902625;28;86863;-85
2022/07/11 09:40:37;;;;;;;3.63;3.25;;;49.30;26.00;;;;;;4921927;28;87156;-85
2022/07/11 09:43:04;;;;;;;4.57;3.83;;;46.90;26.30;;;;;;4903180;28;87934;-83
2022/07/11 09:45:32;;;;;;;4.28;3.88;;;47.80;26.80;;;;;;4909639;28;88726;-84
2022/07/11 09:47:59;;;;;;;5.20;4.80;;;49.80;25.90;;;;;;4898226;28;87207;-85
2022/07/11 09:50:27;;;;;;;4.15;3.75;;;49.80;26.00;;;;;;4900034;28;86973;-85
2022/07/11 09:53:02;;;;;;;4.30;3.90;;;49.90;24.90;;;;;;4895522;28;87299;-86
2022/07/11 09:55:29;;;;;;;4.20;2.47;;;47.60;26.90;;;;;;4904229;28;86970;-85
2022/07/11 09:57:54;;;;;;;3.83;3.53;;;47.80;26.30;;;;;;4911379;28;87108;-86
2022/07/11 10:00:20;;;;;;;5.32;3.83;;;45.20;27.20;;;;;;4901801;28;86643;-86
2022/07/11 10:02:46;;;;;;;4.40;2.70;;;46.40;26.70;;;;;;4901057;28;87330;-84
2022/07/11 10:05:12;;;;;;;3.03;2.67;;;46.80;26.80;;;;;;4903215;28;87276;-84
2022/07/11 10:07:38;;;;;;;3.70;3.08;;;48.30;26.10;;;;;;4901047;28;88084;-86
2022/07/11 10:10:06;;;;;;;5.90;3.00;;;47.80;25.50;;;;;;4905733;28;87211;-85
2022/07/11 10:12:33;;;;;;;2.85;2.53;;;45.10;26.40;;;;;;4893072;28;88261;-83
2022/07/11 10:15:07;;;;;;;4.45;3.13;;;42.40;27.60;;;;;;4902625;28;88397;-87
2022/07/11 10:17:48;;;;;;;4.50;3.75;;;40.20;29.30;;;;;;4905147;28;86863;-84
2022/07/11 10:20:46;;;;;;;3.17;2.03;;;37.10;32.20;;;;;;4908636;28;87450;-86
2022/07/11 10:23:31;;;;;;;5.13;1.88;;;34.70;34.00;;;;;;4891257;28;87137;-84
2022/07/11 10:26:17;;;;;;;3.72;1.67;;;33.60;35.60;;;;;;4903183;28;87420;-86
2022/07/11 10:28:55;;;;;;;3.85;1.45;;;31.70;38.90;;;;;;4897193;28;86882;-85
2022/07/11 10:31:25;;;;;;;2.17;0.85;;;30.30;42.10;;;;;;4900810;28;86854;-83
2022/07/11 10:34:18;;;;;;;2.08;0.95;;;29.10;41.40;;;;;;4903509;28;88239;-85
2022/07/11 10:36:44;;;;;;;4.53;1.35;;;29.50;41.30;;;;;;4898517;28;87721;-84
2022/07/11 10:39:18;;;;;;;2.63;0.90;;;28.90;43.40;;;;;;4901981;28;87115;-87
2022/07/11 10:41:47;;;;;;;2.28;0.85;;;28.00;43.70;;;;;;4898422;28;86991;-86
2022/07/11 10:44:13;;;;;;;2.88;1.00;;;27.80;44.10;;;;;;4902057;28;87281;-83
2022/07/11 10:46:38;;;;;;;2.25;1.10;;;27.40;46.50;;;;;;4900901;28;86938;-84
2022/07/11 10:49:18;;;;;;;1.85;0.50;;;27.30;44.20;;;;;;4903620;28;87543;-85
2022/07/11 10:51:55;;;;;;;2.40;0.60;;;27.00;46.20;;;;;;4900526;28;86193;-83
2022/07/11 10:54:42;;;;;;;2.05;0.50;;;27.10;46.00;;;;;;4897082;28;87121;-84
2022/07/11 10:57:11;;;;;;;2.70;0.70;;;26.70;45.90;;;;;;4900743;28;86942;-85
2022/07/11 10:59:55;;;;;;;2.60;0.52;;;26.90;47.70;;;;;;4900333;28;87799;-83
2022/07/11 11:02:20;;;;;;;2.63;0.60;;;27.10;45.20;;;;;;4899523;28;88466;-85
2022/07/11 11:04:57;;;;;;;2.60;0.70;;;27.10;46.40;;;;;;4902738;28;87417;-87
2022/07/11 11:07:36;;;;;;;1.85;0.70;;;27.10;47.00;;;;;;4901546;28;87034;-84
2022/07/11 11:10:27;;;;;;;1.95;0.80;;;27.10;48.20;;;;;;4900105;28;87541;-87
2022/07/11 11:13:05;;;;;;;2.97;0.40;;;26.80;47.00;;;;;;4887033;28;88282;-87
2022/07/11 11:15:54;;;;;;;2.65;0.50;;;26.40;47.40;;;;;;4904804;28;87796;-85
2022/07/11 11:18:25;;;;;;;1.58;0.75;;;26.10;48.90;;;;;;4905663;28;86638;-84
2022/07/11 11:21:11;;;;;;;2.45;0.60;;;26.30;49.00;;;;;;4905302;28;86955;-83
2022/07/11 11:23:38;;;;;;;2.42;0.55;;;26.30;47.30;;;;;;4894184;28;87509;-84
2022/07/11 11:26:14;;;;;;;1.80;0.60;;;26.60;45.50;;;;;;4905580;28;88387;-83
2022/07/11 11:28:59;;;;;;;1.45;0.70;;;26.70;47.50;;;;;;4905800;28;87806;-83
2022/07/11 11:31:27;;;;;;;1.88;0.60;;;26.90;47.40;;;;;;4906397;28;86968;-87
2022/07/11 11:33:53;;;;;;;2.05;0.50;;;26.60;48.90;;;;;;4905802;28;86693;-83
2022/07/11 11:36:23;;;;;;;1.67;0.55;;;26.80;48.20;;;;;;4905677;28;87093;-84
2022/07/11 11:38:49;;;;;;;2.50;0.50;;;27.00;49.20;;;;;;4904810;28;87019;-87
2022/07/11 11:41:25;;;;;;;9.30;0.57;;;26.30;46.60;;;;;;4905068;28;86832;-84
2022/07/11 11:43:52;;;;;;;2.97;0.50;;;25.90;49.60;;;;;;4905432;28;86189;-84
2022/07/11 11:46:18;;;;;;;3.80;0.52;;;25.70;50.20;;;;;;4904653;28;87092;-84
2022/07/11 11:48:46;;;;;;;3.78;0.52;;;26.10;49.60;;;;;;4906148;28;87291;-83
2022/07/11 11:51:13;;;;;;;2.00;0.30;;;25.80;49.80;;;;;;4904455;28;87873;-85
2022/07/11 11:53:48;;;;;;;1.38;0.40;;;25.60;50.00;;;;;;4905756;28;86878;-84
2022/07/11 11:56:30;;;;;;;2.85;0.50;;;25.90;49.70;;;;;;4904486;28;87648;-84
2022/07/11 11:59:01;;;;;;;7.35;0.70;;;26.30;47.60;;;;;;4904898;28;87896;-84
2022/07/11 12:01:29;;;;;;;2.65;0.63;;;26.00;50.30;;;;;;4906189;28;87073;-85
2022/07/11 12:04:00;;;;;;;5.95;0.43;;;26.20;50.30;;;;;;4905637;28;86999;-84
2022/07/11 12:06:29;;;;;;;2.67;0.63;;;26.10;48.60;;;;;;4906236;28;88032;-84
2022/07/11 12:09:03;;;;;;;3.50;0.75;;;25.80;50.50;;;;;;4905641;28;86938;-84
2022/07/11 12:11:31;;;;;;;5.75;0.50;;;25.80;51.60;;;;;;4905930;28;86911;-84
2022/07/11 12:14:02;;;;;;;3.00;0.68;;;25.90;50.30;;;;;;4905872;28;87102;-84
2022/07/11 12:16:43;;;;;;;0.95;0.32;;;25.80;50.90;;;;;;4904714;28;88470;-86
2022/07/11 12:19:09;;;;;;;1.42;0.40;;;25.90;51.20;;;;;;4905050;28;87815;-84
2022/07/11 12:21:36;;;;;;;3.15;0.75;;;25.90;50.30;;;;;;4906100;28;87129;-83
2022/07/11 12:24:08;;;;;;;1.90;0.50;;;26.30;49.60;;;;;;4906389;28;87581;-83
2022/07/11 12:26:37;;;;;;;2.17;0.63;;;26.40;50.50;;;;;;4904545;28;86896;-85
2022/07/11 12:29:16;;;;;;;2.08;0.52;;;26.50;48.50;;;;;;4905259;28;87011;-83
2022/07/11 12:31:43;;;;;;;2.15;0.40;;;26.30;47.90;;;;;;4905766;28;86501;-86
2022/07/11 12:34:09;;;;;;;1.60;0.40;;;26.20;49.70;;;;;;4909632;28;86065;-84
2022/07/11 12:36:35;;;;;;;3.90;0.80;;;26.10;49.20;;;;;;4908811;28;88238;-83
2022/07/11 12:39:00;;;;;;;1.35;0.57;;;26.30;51.90;;;;;;4908577;28;87503;-84
2022/07/11 12:41:29;;;;;;;3.90;0.60;;;26.20;50.80;;;;;;4908515;28;87806;-83
2022/07/11 12:46:40;;;;;;;2.25;0.32;;;26.20;51.40;;;;;;4906606;28;86553;-84
2022/07/11 12:49:08;;;;;;;1.88;0.55;;;25.90;50.10;;;;;;4908108;28;87312;-84
2022/07/11 12:51:39;;;;;;;14.25;0.93;;;26.10;51.90;;;;;;4908923;28;87094;-83
2022/07/11 12:54:10;;;;;;;2.17;0.28;;;26.10;49.80;;;;;;4910003;28;86865;-83
2022/07/11 12:56:36;;;;;;;5.38;0.55;;;26.30;48.90;;;;;;4906832;28;88340;-82
2022/07/11 12:59:03;;;;;;;4.82;0.47;;;26.10;49.80;;;;;;4908402;28;87597;-83
2022/07/11 13:01:30;;;;;;;4.40;0.43;;;25.90;50.60;;;;;;4904307;28;88848;-82
2022/07/11 13:03:56;;;;;;;2.28;0.38;;;26.10;50.40;;;;;;4908802;28;87038;-82
2022/07/11 13:09:07;;;;;;;4.65;0.50;;;26.60;50.40;;;;;;4908292;28;87859;-83
2022/07/11 13:11:32;;;;;;;3.50;0.57;;;26.70;48.90;;;;;;4907383;28;87659;-82
2022/07/11 13:13:58;;;;;;;1.08;0.40;;;26.60;49.50;;;;;;4908134;28;87046;-82
2022/07/11 13:16:24;;;;;;;3.38;0.52;;;26.40;52.10;;;;;;4908732;28;88618;-82
2022/07/11 13:18:50;;;;;;;2.55;0.38;;;26.50;50.00;;;;;;4894421;28;87086;-82
2022/07/11 13:21:16;;;;;;;4.15;0.63;;;26.30;49.20;;;;;;4899663;28;87101;-82
2022/07/11 13:23:42;;;;;;;3.05;0.32;;;26.20;50.60;;;;;;4911114;28;86665;-83
2022/07/11 13:26:09;;;;;;;1.42;0.30;;;26.10;49.80;;;;;;4909254;28;87152;-82
2022/07/11 13:28:36;;;;;;;2.38;0.28;;;26.20;49.30;;;;;;4904471;28;87843;-84
2022/07/11 13:31:05;;;;;;;6.82;0.52;;;26.10;50.10;;;;;;4911905;28;87820;-81
2022/07/11 13:33:31;;;;;;;7.57;0.65;;;26.00;53.00;;;;;;4910521;28;86965;-84
2022/07/11 13:35:57;;;;;;;4.07;0.35;;;25.90;50.10;;;;;;4912756;28;87252;-80
2022/07/11 13:38:23;;;;;;;3.90;0.45;;;26.20;51.20;;;;;;4900533;28;87083;-82
2022/07/11 13:40:49;;;;;;;2.00;0.20;;;26.30;50.20;;;;;;4897019;28;87263;-82
2022/07/11 13:43:15;;;;;;;1.73;0.30;;;26.30;49.60;;;;;;4905828;28;87026;-82
2022/07/11 13:45:43;;;;;;;3.15;0.30;;;26.20;49.60;;;;;;4904251;28;87037;-82
2022/07/11 13:48:08;;;;;;;1.88;0.22;;;26.40;50.00;;;;;;4907239;28;87377;-82
2022/07/11 13:50:34;;;;;;;2.55;0.52;;;26.10;50.30;;;;;;4900538;28;86667;-82
2022/07/11 13:53:00;;;;;;;2.47;0.30;;;26.20;50.40;;;;;;4907830;28;87006;-81
2022/07/11 13:55:29;;;;;;;2.50;0.40;;;26.20;48.30;;;;;;4905299;28;88102;-82
2022/07/11 13:57:59;;;;;;;2.90;0.35;;;25.60;49.30;;;;;;4905853;28;88399;-82
2022/07/11 14:00:28;;;;;;;1.30;0.28;;;25.60;51.70;;;;;;4906841;28;87268;-82
2022/07/11 14:02:54;;;;;;;2.65;0.22;;;25.90;50.60;;;;;;4906771;28;87009;-81
2022/07/11 14:05:20;;;;;;;4.10;0.40;;;25.90;49.10;;;;;;4903696;28;87934;-82
2022/07/11 14:07:46;;;;;;;1.30;0.30;;;25.60;50.40;;;;;;4906910;28;87178;-82
2022/07/11 14:10:13;;;;;;;1.92;0.25;;;25.60;50.10;;;;;;4906219;28;87826;-82
2022/07/11 14:12:40;;;;;;;1.35;0.30;;;25.70;50.10;;;;;;4904206;28;86317;-81
2022/07/11 14:15:07;;;;;;;1.48;0.13;;;25.70;50.50;;;;;;4900584;28;87077;-82
2022/07/11 14:17:34;;;;;;;2.00;0.32;;;25.70;52.60;;;;;;4906481;28;87313;-81
2022/07/11 14:20:00;;;;;;;1.00;0.22;;;25.60;50.90;;;;;;4903268;28;87971;-81
2022/07/11 14:22:25;;;;;;;2.83;0.30;;;25.60;50.20;;;;;;4887558;28;87034;-81
2022/07/11 14:24:51;;;;;;;5.68;0.30;;;25.60;50.60;;;;;;4892063;28;87328;-82
2022/07/11 14:27:17;;;;;;;1.85;0.40;;;25.80;51.10;;;;;;4906979;28;87138;-82
2022/07/11 14:29:44;;;;;;;1.25;0.40;;;25.90;51.10;;;;;;4905485;28;87333;-81
2022/07/11 14:32:14;;;;;;;2.42;0.40;;;25.80;50.00;;;;;;4906213;28;87088;-82
2022/07/11 14:34:40;;;;;;;0.98;0.20;;;25.40;50.60;;;;;;4903953;28;87887;-81
2022/07/11 14:37:06;;;;;;;0.90;0.20;;;25.40;51.20;;;;;;4904509;28;86454;-82
2022/07/11 14:39:33;;;;;;;1.20;0.20;;;25.50;50.90;;;;;;4897064;28;86728;-83
2022/07/11 14:42:00;;;;;;;4.13;0.25;;;25.70;50.50;;;;;;4892276;28;86954;-81
2022/07/11 14:44:27;;;;;;;1.33;0.20;;;25.60;51.10;;;;;;4905142;28;88253;-82
2022/07/11 14:46:53;;;;;;;3.90;0.30;;;25.50;50.00;;;;;;4904635;28;87789;-82
2022/07/11 14:49:19;;;;;;;1.20;0.30;;;25.40;52.60;;;;;;4901921;28;87062;-79
2022/07/11 14:51:44;;;;;;;0.95;0.20;;;25.20;50.70;;;;;;4897774;28;88681;-79
2022/07/11 14:54:12;;;;;;;0.68;0.10;;;25.00;51.60;;;;;;4902349;28;87526;-81
2022/07/11 14:56:38;;;;;;;1.27;0.32;;;25.10;52.80;;;;;;4911781;28;87942;-82
2022/07/11 14:59:04;;;;;;;1.20;0.20;;;25.20;52.20;;;;;;4907797;28;86705;-87
2022/07/11 15:01:32;;;;;;;0.88;0.22;;;25.20;51.40;;;;;;4889772;28;86446;-86
2022/07/11 15:03:57;;;;;;;5.30;0.32;;;25.10;52.20;;;;;;4906996;28;88185;-82
2022/07/11 15:12:20;;;;;;;1.88;0.22;;;25.20;52.90;;;;;;4901444;28;87045;-84
2022/07/11 15:14:39;;;;;;;2.42;0.55;;;25.40;52.00;;;;;;4894634;28;87957;-83
2022/07/11 15:17:05;;;;;;;2.60;0.40;;;25.60;52.00;;;;;;4897480;28;87349;-83
2022/07/11 15:19:31;;;;;;;2.08;0.32;;;25.70;50.30;;;;;;4907534;28;87103;-83
2022/07/11 15:21:57;;;;;;;2.13;0.30;;;25.60;51.30;;;;;;4904727;28;87116;-82
2022/07/11 15:24:23;;;;;;;1.55;0.32;;;25.50;50.90;;;;;;4906435;28;87248;-83
2022/07/11 15:26:48;;;;;;;0.95;0.20;;;25.50;51.40;;;;;;4901802;28;86780;-83
2022/07/11 15:29:14;;;;;;;0.90;0.10;;;25.60;51.90;;;;;;4906221;28;87333;-83
2022/07/11 15:31:40;;;;;;;1.08;0.30;;;25.30;51.60;;;;;;4902113;28;86735;-85
2022/07/11 15:34:06;;;;;;;1.27;0.30;;;25.30;52.30;;;;;;4900279;28;88640;-82
2022/07/11 15:36:31;;;;;;;1.52;0.30;;;25.20;51.20;;;;;;4900198;28;87823;-81
2022/07/11 15:38:57;;;;;;;1.02;0.32;;;25.20;52.20;;;;;;4902706;28;87318;-81
2022/07/11 15:41:23;;;;;;;0.75;0.30;;;25.40;52.40;;;;;;4902294;28;86944;-82
2022/07/11 15:43:48;;;;;;;3.33;0.20;;;25.40;50.40;;;;;;4905162;28;87174;-83
2022/07/11 15:46:14;;;;;;;1.30;0.38;;;25.40;52.30;;;;;;4902054;28;88573;-83
2022/07/11 15:48:40;;;;;;;1.50;0.30;;;25.50;52.00;;;;;;4897734;28;86854;-82
2022/07/11 15:51:06;;;;;;;3.17;0.50;;;25.40;50.00;;;;;;4902584;28;86366;-82
2022/07/11 15:53:32;;;;;;;1.13;0.30;;;25.40;52.30;;;;;;4904345;28;87148;-82
2022/07/11 15:55:58;;;;;;;1.80;0.52;;;25.50;51.60;;;;;;4897450;28;87075;-82
2022/07/11 15:58:26;;;;;;;0.65;0.22;;;25.30;52.40;;;;;;4896170;28;87851;-82